Time;durP1;ratioP1;P1;durP2;ratioP2;P2;SDS_P1;SDS_P2;PMS_P1;PMS_P2;Temp;Humidity;BMP_temperature;BMP_pressure;BME280_temperature;BME280_humidity;BME280_pressure;Samples;Min_cycle;Max_cycle;Signal;HPM_P1;HPM_P2
2021/04/10 00:06:51;;;;;;;7.43;1.33;;;21.50;46.80;;;;;;20913844;28;20036;-20
2021/04/10 00:16:52;;;;;;;3.40;1.20;;;21.30;46.80;;;;;;20912546;28;20060;-19
2021/04/10 00:26:53;;;;;;;3.22;1.05;;;21.20;46.90;;;;;;20909859;28;20021;-24
2021/04/10 00:36:53;;;;;;;2.25;0.80;;;21.00;47.10;;;;;;20893692;28;20041;-22
2021/04/10 00:46:54;;;;;;;2.70;1.08;;;21.00;46.90;;;;;;20905795;28;20506;-21
2021/04/10 00:56:55;;;;;;;3.85;1.20;;;20.90;46.80;;;;;;20905266;28;20641;-21
2021/04/10 01:06:55;;;;;;;2.87;1.63;;;20.80;46.80;;;;;;20904638;28;20540;-21
2021/04/10 01:17:01;;;;;;;6.13;0.98;;;20.70;46.90;;;;;;20904292;28;20025;-22
2021/04/10 01:27:23;;;;;;;4.57;1.10;;;20.80;46.30;;;;;;20904105;28;20517;-23
2021/04/10 01:37:28;;;;;;;3.22;0.80;;;20.90;45.80;;;;;;20882068;28;629433;-23
2021/04/10 01:47:30;;;;;;;2.88;1.10;;;20.90;45.40;;;;;;20908097;28;20025;-21
2021/04/10 01:57:32;;;;;;;2.47;0.98;;;21.00;44.90;;;;;;20905403;28;20024;-22
2021/04/10 02:07:33;;;;;;;5.65;1.63;;;21.00;44.50;;;;;;20905453;28;20021;-19
2021/04/10 02:17:34;;;;;;;1.52;0.93;;;21.10;44.10;;;;;;20905516;28;20432;-22
2021/04/10 02:27:35;;;;;;;2.78;0.80;;;21.10;44.00;;;;;;20904081;28;20053;-21
2021/04/10 02:37:37;;;;;;;2.83;0.80;;;21.10;43.70;;;;;;20911934;28;20111;-23
2021/04/10 02:47:41;;;;;;;2.65;0.85;;;21.10;43.50;;;;;;20928137;28;20025;-20
2021/04/10 02:57:43;;;;;;;3.35;0.90;;;21.10;43.40;;;;;;20929515;28;20506;-23
2021/04/10 03:07:46;;;;;;;1.88;0.80;;;21.10;43.20;;;;;;20918852;28;20025;-22
2021/04/10 03:17:47;;;;;;;2.72;1.00;;;21.10;43.20;;;;;;20918511;28;20033;-22
2021/04/10 03:27:48;;;;;;;1.88;0.90;;;21.10;43.00;;;;;;20917737;28;20447;-24
2021/04/10 03:37:48;;;;;;;4.45;1.23;;;21.30;43.00;;;;;;20916335;28;20033;-23
2021/04/10 03:47:55;;;;;;;2.30;0.70;;;21.10;42.90;;;;;;20915875;28;20036;-20
2021/04/10 03:57:59;;;;;;;3.00;0.82;;;21.00;42.70;;;;;;20914919;28;20455;-22
2021/04/10 04:07:59;;;;;;;2.25;0.80;;;20.90;42.70;;;;;;20883188;28;20476;-22
2021/04/10 04:18:00;;;;;;;3.17;0.57;;;21.00;42.70;;;;;;20913488;28;20440;-23
2021/04/10 04:28:00;;;;;;;1.08;0.60;;;20.90;42.80;;;;;;20912167;28;20506;-22
2021/04/10 04:38:01;;;;;;;3.97;0.80;;;20.90;42.80;;;;;;20911838;28;20029;-22
2021/04/10 04:48:02;;;;;;;3.47;1.20;;;21.10;43.00;;;;;;20913267;28;20036;-21
2021/04/10 04:58:02;;;;;;;4.00;0.80;;;21.10;43.00;;;;;;20915143;28;20498;-21
2021/04/10 05:08:03;;;;;;;2.90;0.95;;;21.20;42.90;;;;;;20913207;28;20087;-24
2021/04/10 05:18:04;;;;;;;6.40;0.90;;;21.20;42.90;;;;;;20910734;28;20033;-23
2021/04/10 05:28:05;;;;;;;4.82;0.85;;;21.30;42.80;;;;;;20909444;28;20103;-23
2021/04/10 05:38:05;;;;;;;9.10;0.85;;;21.10;42.60;;;;;;20924308;23;20065;-22
2021/04/10 05:48:07;;;;;;;5.95;1.30;;;21.10;42.50;;;;;;20857359;28;20104;-23
2021/04/10 05:58:07;;;;;;;4.70;1.00;;;21.10;42.30;;;;;;20908854;28;20032;-23
2021/04/10 06:08:08;;;;;;;2.93;1.27;;;21.00;42.20;;;;;;20916283;28;20487;-20
2021/04/10 06:18:08;;;;;;;4.97;1.20;;;21.10;42.00;;;;;;20910134;28;20455;-21
2021/04/10 06:28:09;;;;;;;2.97;0.90;;;21.00;42.00;;;;;;20904063;28;20430;-21
2021/04/10 06:38:09;;;;;;;3.03;1.05;;;21.00;41.80;;;;;;20903117;28;20177;-22
2021/04/10 06:48:14;;;;;;;3.47;0.88;;;21.20;41.60;;;;;;20900623;28;20380;-22
2021/04/10 06:58:21;;;;;;;3.38;1.02;;;21.80;40.20;;;;;;20900037;28;20027;-22
2021/04/10 07:08:22;;;;;;;5.95;1.55;;;22.80;38.50;;;;;;20901835;28;20424;-24
2021/04/10 07:18:28;;;;;;;8.27;2.00;;;22.80;38.30;;;;;;20898753;28;20033;-23
2021/04/10 07:28:30;;;;;;;8.50;1.60;;;22.60;38.90;;;;;;20900230;28;20356;-20
2021/04/10 07:38:36;;;;;;;22.35;2.58;;;22.40;39.20;;;;;;20914319;28;20039;-22
2021/04/10 07:48:37;;;;;;;10.60;1.58;;;22.50;39.90;;;;;;20916877;28;20025;-21
2021/04/10 07:58:38;;;;;;;8.98;1.75;;;22.60;39.50;;;;;;20916648;28;20519;-20
2021/04/10 08:08:56;;;;;;;9.13;3.00;;;22.50;39.90;;;;;;20914518;28;20032;-24
2021/04/10 08:18:59;;;;;;;21.63;5.30;;;22.50;41.10;;;;;;20912366;28;20028;-23
2021/04/10 08:29:00;;;;;;;16.75;3.80;;;22.70;40.90;;;;;;20912471;28;20096;-21
2021/04/10 08:39:01;;;;;;;19.17;3.87;;;22.90;40.50;;;;;;20910630;28;20043;-21
2021/04/10 08:49:02;;;;;;;10.88;2.70;;;23.20;40.00;;;;;;20908144;28;20560;-22
2021/04/10 08:59:10;;;;;;;13.13;3.27;;;23.00;40.10;;;;;;20909158;28;20037;-22
2021/04/10 09:09:10;;;;;;;24.20;4.90;;;22.90;40.20;;;;;;20903963;28;20475;-22
2021/04/10 09:19:11;;;;;;;18.48;3.85;;;22.80;40.50;;;;;;20905868;28;20052;-21
2021/04/10 09:29:15;;;;;;;15.30;3.63;;;22.50;40.80;;;;;;20906410;28;20057;-21
2021/04/10 09:39:54;;;;;;;10.02;3.03;;;22.70;41.30;;;;;;20907039;28;20047;-21
2021/04/10 09:49:55;;;;;;;11.33;3.10;;;22.50;41.30;;;;;;20893108;28;20025;-21
2021/04/10 09:59:55;;;;;;;16.95;3.63;;;22.30;41.50;;;;;;20905200;28;20471;-22
2021/04/10 10:10:14;;;;;;;11.60;4.10;;;22.10;41.80;;;;;;20912275;28;20068;-22
2021/04/10 10:20:16;;;;;;;20.20;3.97;;;21.90;42.20;;;;;;20909327;28;20033;-24
2021/04/10 10:30:21;;;;;;;18.23;4.32;;;21.90;42.00;;;;;;20906788;28;20198;-22
2021/04/10 10:40:24;;;;;;;12.90;2.88;;;21.90;42.00;;;;;;20902677;28;20081;-22
2021/04/10 10:50:28;;;;;;;11.07;3.78;;;21.80;42.00;;;;;;20900855;28;20037;-20
2021/04/10 11:00:30;;;;;;;10.60;3.40;;;21.70;42.20;;;;;;20902132;28;20091;-22
2021/04/10 11:10:32;;;;;;;9.68;3.55;;;21.60;42.60;;;;;;20908604;28;20056;-24
2021/04/10 11:20:34;;;;;;;12.77;3.45;;;21.50;43.10;;;;;;20915183;28;20103;-22
2021/04/10 11:30:35;;;;;;;9.23;3.13;;;21.50;43.40;;;;;;20913311;28;20025;-22
2021/04/10 11:40:35;;;;;;;16.05;3.58;;;21.50;43.40;;;;;;20903682;23;20607;-21
2021/04/10 11:50:42;;;;;;;15.00;3.53;;;21.50;43.20;;;;;;20796720;28;20448;-19
2021/04/10 12:00:42;;;;;;;9.93;2.65;;;21.40;42.90;;;;;;20762408;28;20453;-20
2021/04/10 12:10:51;;;;;;;7.80;2.37;;;21.50;42.70;;;;;;20749213;28;20034;-20
2021/04/10 12:20:54;;;;;;;10.65;2.58;;;21.50;42.70;;;;;;20761802;28;20026;-21
2021/04/10 12:30:55;;;;;;;6.82;2.38;;;21.50;42.40;;;;;;20752456;28;20476;-21
2021/04/10 12:40:56;;;;;;;8.90;2.33;;;21.40;42.40;;;;;;20743458;28;20484;-22
2021/04/10 12:50:56;;;;;;;8.38;2.92;;;21.80;42.20;;;;;;20739903;28;20030;-22
2021/04/10 13:00:57;;;;;;;6.50;2.55;;;21.70;42.20;;;;;;20740682;28;20058;-21
2021/04/10 13:10:58;;;;;;;6.50;1.90;;;22.00;41.90;;;;;;20771377;28;20128;-20
2021/04/10 13:20:58;;;;;;;4.15;2.05;;;21.80;41.90;;;;;;20769662;28;20477;-19
2021/04/10 13:31:00;;;;;;;8.05;2.80;;;21.90;41.60;;;;;;20768029;28;20033;-21
2021/04/10 13:41:01;;;;;;;4.90;1.40;;;21.80;41.70;;;;;;20749674;28;20040;-21
2021/04/10 13:51:01;;;;;;;6.47;1.70;;;22.00;41.50;;;;;;20739971;28;20100;-20
2021/04/10 14:01:04;;;;;;;7.28;2.88;;;21.60;41.10;;;;;;20739188;28;20034;-23
2021/04/10 14:11:05;;;;;;;11.55;3.47;;;22.00;40.10;;;;;;20738840;28;20683;-24
2021/04/10 14:21:07;;;;;;;11.55;2.65;;;21.60;38.70;;;;;;20737064;28;20038;-18
2021/04/10 14:31:10;;;;;;;13.15;3.53;;;21.50;38.20;;;;;;20696394;28;20098;-19
2021/04/10 14:41:11;;;;;;;9.52;3.20;;;21.50;37.60;;;;;;20735684;28;20127;-20
2021/04/10 14:51:11;;;;;;;7.63;3.13;;;21.40;37.80;;;;;;20735406;28;20029;-23
2021/04/10 15:01:12;;;;;;;10.43;3.47;;;21.80;38.10;;;;;;20736195;28;20026;-21
2021/04/10 15:11:13;;;;;;;12.65;2.90;;;21.90;38.70;;;;;;20746627;28;20061;-23
2021/04/10 15:21:15;;;;;;;10.07;2.90;;;22.10;39.00;;;;;;20735616;28;20389;-21
2021/04/10 15:31:16;;;;;;;12.77;3.05;;;22.50;38.60;;;;;;20736784;28;20033;-24
2021/04/10 15:41:19;;;;;;;12.33;3.17;;;22.90;38.30;;;;;;20739933;28;20084;-22
2021/04/10 15:51:20;;;;;;;13.32;2.85;;;22.80;38.80;;;;;;20728036;28;20563;-19
2021/04/10 16:01:21;;;;;;;18.00;3.97;;;22.80;39.30;;;;;;20734204;28;20108;-21
2021/04/10 16:11:22;;;;;;;15.55;3.28;;;22.60;39.80;;;;;;20746836;28;20497;-21
2021/04/10 16:21:23;;;;;;;13.03;3.83;;;22.50;40.40;;;;;;20751768;28;20112;-21
2021/04/10 16:31:24;;;;;;;21.00;4.95;;;22.30;40.50;;;;;;20748104;28;20042;-22
2021/04/10 16:41:24;;;;;;;100.38;48.50;;;22.30;40.70;;;;;;20745787;28;20041;-21
2021/04/10 16:51:26;;;;;;;166.32;96.50;;;22.20;40.80;;;;;;20745371;28;20030;-22
2021/04/10 17:01:27;;;;;;;160.88;94.57;;;22.10;40.70;;;;;;20771712;28;20037;-22
2021/04/10 17:11:27;;;;;;;112.93;68.32;;;22.20;40.80;;;;;;20772447;28;20038;-22
2021/04/10 17:21:29;;;;;;;112.88;63.30;;;22.40;40.20;;;;;;20747402;28;20088;-25
2021/04/10 17:31:29;;;;;;;74.78;49.00;;;22.50;41.10;;;;;;20761731;28;20089;-22
2021/04/10 17:41:30;;;;;;;79.03;42.95;;;22.80;41.00;;;;;;20799109;22;20045;-20
2021/04/10 17:51:31;;;;;;;72.65;35.67;;;23.20;40.60;;;;;;20905404;28;20034;-23
2021/04/10 18:01:34;;;;;;;45.90;29.52;;;23.20;40.50;;;;;;20905168;28;20028;-23
2021/04/10 18:11:37;;;;;;;48.47;25.63;;;23.00;40.60;;;;;;20905102;28;20052;-22
2021/04/10 18:21:39;;;;;;;40.97;24.42;;;23.00;40.50;;;;;;20861550;28;20033;-20
2021/04/10 18:31:40;;;;;;;39.25;24.52;;;22.90;40.60;;;;;;20903597;28;20037;-22
2021/04/10 18:41:40;;;;;;;34.47;20.42;;;22.90;40.50;;;;;;20903180;28;20033;-23
2021/04/10 18:51:41;;;;;;;40.53;21.42;;;22.80;40.60;;;;;;20900934;28;20056;-21
2021/04/10 19:01:42;;;;;;;36.97;19.15;;;22.80;42.10;;;;;;20901906;28;20025;-21
2021/04/10 19:11:49;;;;;;;43.78;19.75;;;22.90;42.50;;;;;;20873337;28;20036;-23
2021/04/10 19:21:51;;;;;;;38.55;17.63;;;23.00;43.10;;;;;;20901044;28;20033;-24
2021/04/10 19:31:55;;;;;;;34.97;16.77;;;23.10;43.50;;;;;;20909949;28;20029;-20
2021/04/10 19:41:56;;;;;;;38.35;16.20;;;23.20;43.00;;;;;;20893937;28;20089;-22
2021/04/10 19:51:57;;;;;;;33.15;14.85;;;23.00;43.60;;;;;;20888482;28;20045;-19
2021/04/10 20:12:41;;;;;;;33.30;14.18;;;23.10;44.00;;;;;;21222763;22;20644;-21
2021/04/10 20:22:42;;;;;;;22.77;12.52;;;23.00;43.60;;;;;;21144713;28;20540;-20
2021/04/10 20:32:43;;;;;;;19.20;10.93;;;22.90;43.70;;;;;;21047080;28;20020;-19
2021/04/10 20:42:43;;;;;;;23.73;11.55;;;22.70;44.20;;;;;;21058245;28;20409;-23
2021/04/10 20:52:44;;;;;;;24.55;10.68;;;22.60;44.40;;;;;;21057733;28;20051;-19
2021/04/10 21:02:45;;;;;;;23.63;11.68;;;22.50;44.70;;;;;;21056889;28;20071;-20
2021/04/10 21:12:46;;;;;;;16.85;8.82;;;22.60;44.50;;;;;;21087379;28;20151;-19
2021/04/10 21:22:47;;;;;;;17.48;8.27;;;22.60;44.50;;;;;;21031667;28;20160;-19
2021/04/10 21:32:47;;;;;;;15.85;8.85;;;22.80;44.30;;;;;;21030089;28;20037;-21
2021/04/10 21:42:48;;;;;;;14.13;7.57;;;22.60;44.70;;;;;;21036354;28;20050;-21
2021/04/10 21:52:48;;;;;;;19.95;10.00;;;22.80;44.60;;;;;;21029603;28;20037;-22
2021/04/10 22:02:49;;;;;;;14.27;7.10;;;22.50;45.10;;;;;;21017581;28;20100;-23
2021/04/10 22:12:49;;;;;;;12.45;6.30;;;22.60;43.40;;;;;;20683556;28;20056;-20
2021/04/10 22:22:50;;;;;;;8.93;6.35;;;22.40;42.40;;;;;;20818684;28;20041;-21
2021/04/10 22:32:52;;;;;;;8.50;5.15;;;22.10;42.10;;;;;;20819736;28;20591;-20
2021/04/10 22:42:52;;;;;;;8.60;5.43;;;22.00;42.90;;;;;;20811129;28;20048;-19
2021/04/10 22:52:55;;;;;;;9.38;5.05;;;21.80;43.20;;;;;;20816135;28;20377;-19
2021/04/10 23:02:56;;;;;;;7.88;4.47;;;21.60;43.70;;;;;;20787688;28;20045;-20
2021/04/10 23:12:58;;;;;;;9.88;4.10;;;21.40;44.00;;;;;;20792011;28;20034;-23
2021/04/10 23:22:59;;;;;;;13.68;4.15;;;21.30;44.30;;;;;;20791851;28;20476;-20
2021/04/10 23:33:06;;;;;;;6.95;3.95;;;21.20;44.50;;;;;;20821716;28;20520;-22
2021/04/10 23:43:07;;;;;;;7.50;4.35;;;21.10;44.70;;;;;;20814954;28;20022;-20
2021/04/10 23:53:07;;;;;;;5.83;3.70;;;21.00;44.90;;;;;;20807833;28;20037;-21
